createdAt,value
2023-04-07T00:01:44.910Z,88.98
2023-04-07T00:04:11.781Z,88.42
2023-04-07T00:06:38.584Z,88.08
2023-04-07T00:09:05.300Z,87.73
2023-04-07T00:11:32.119Z,88.05
2023-04-07T00:13:58.935Z,87.68
2023-04-07T00:16:27.447Z,88.31
2023-04-07T00:18:54.207Z,88.68
2023-04-07T00:21:21.202Z,88.88
2023-04-07T00:23:48.028Z,89.26
2023-04-07T00:26:14.817Z,88.84
2023-04-07T00:28:41.819Z,88.55
2023-04-07T00:31:08.627Z,88.65
2023-04-07T00:33:36.936Z,88.39
2023-04-07T00:36:04.250Z,89.15
2023-04-07T00:38:31.098Z,88.71
2023-04-07T00:40:58.396Z,89.80
2023-04-07T00:43:27.881Z,90.44
2023-04-07T00:45:54.827Z,89.84
2023-04-07T00:48:22.323Z,90.42
2023-04-07T00:50:50.571Z,89.81
2023-04-07T00:53:17.584Z,89.53
2023-04-07T00:55:44.599Z,89.88
2023-04-07T00:58:11.696Z,89.48
2023-04-07T01:00:45.663Z,89.48
2023-04-07T01:03:21.979Z,89.54
2023-04-07T01:05:56.018Z,90.15
2023-04-07T01:08:30.478Z,90.04
2023-04-07T01:11:06.079Z,89.19
2023-04-07T01:13:37.929Z,89.72
2023-04-07T01:16:11.268Z,89.74
2023-04-07T01:18:40.699Z,90.06
2023-04-07T01:21:14.322Z,89.85
2023-04-07T01:24:01.488Z,89.99
2023-04-07T01:26:31.074Z,90.39
2023-04-07T01:29:34.256Z,89.68
2023-04-07T01:32:04.506Z,87.73
2023-04-07T01:34:33.117Z,87.94
2023-04-07T01:37:03.013Z,89.00
2023-04-07T01:39:36.062Z,89.12
2023-04-07T01:42:06.032Z,89.09
2023-04-07T01:44:33.586Z,88.41
2023-04-07T01:47:02.902Z,88.91
2023-04-07T01:49:31.476Z,89.19
2023-04-07T01:51:58.570Z,89.79
2023-04-07T01:54:26.859Z,89.86
2023-04-07T01:56:53.692Z,89.65
2023-04-07T01:59:20.738Z,89.54
2023-04-07T02:01:48.445Z,89.99
2023-04-07T02:04:26.110Z,89.75
2023-04-07T02:06:58.182Z,89.67
2023-04-07T02:09:28.610Z,89.81
2023-04-07T02:11:57.516Z,89.18
2023-04-07T02:14:25.286Z,88.95
2023-04-07T02:16:53.694Z,86.93
2023-04-07T02:19:23.058Z,86.13
2023-04-07T02:21:52.442Z,86.99
2023-04-07T02:24:20.498Z,87.31
2023-04-07T02:26:47.311Z,86.36
2023-04-07T02:29:14.386Z,85.78
2023-04-07T02:31:41.159Z,87.11
2023-04-07T02:34:07.938Z,87.36
2023-04-07T02:36:36.286Z,87.49
2023-04-07T02:39:03.256Z,87.65
2023-04-07T02:41:30.268Z,88.19
2023-04-07T02:43:57.403Z,88.06
2023-04-07T02:46:24.613Z,88.16
2023-04-07T02:48:51.640Z,88.11
2023-04-07T02:51:18.720Z,87.82
2023-04-07T02:53:47.386Z,87.88
2023-04-07T02:56:16.744Z,87.75
2023-04-07T02:58:44.082Z,87.54
2023-04-07T03:01:11.139Z,88.52
2023-04-07T03:03:38.117Z,88.58
2023-04-07T03:06:05.142Z,88.34
2023-04-07T03:08:32.209Z,88.22
2023-04-07T03:11:00.404Z,87.39
2023-04-07T03:13:27.160Z,85.97
2023-04-07T03:15:54.564Z,85.26
2023-04-07T03:18:21.503Z,85.23
2023-04-07T03:20:48.872Z,85.54
2023-04-07T03:23:16.099Z,85.51
2023-04-07T03:25:42.906Z,86.62
2023-04-07T03:28:11.578Z,87.75
2023-04-07T03:30:38.401Z,88.06
2023-04-07T03:33:05.863Z,89.15
2023-04-07T03:35:32.683Z,89.77
2023-04-07T03:37:59.604Z,89.46
2023-04-07T03:40:26.630Z,89.16
2023-04-07T03:42:54.723Z,89.04
2023-04-07T03:45:23.426Z,88.08
2023-04-07T03:47:50.477Z,87.69
2023-04-07T03:50:17.559Z,88.06
2023-04-07T03:52:44.257Z,88.39
2023-04-07T03:55:11.036Z,88.55
2023-04-07T03:57:38.168Z,88.28
2023-04-07T04:00:06.534Z,87.70
2023-04-07T04:02:35.192Z,87.90
2023-04-07T04:05:02.015Z,87.04
2023-04-07T04:07:29.855Z,87.72
2023-04-07T04:09:56.851Z,88.35
2023-04-07T04:12:23.650Z,88.85
2023-04-07T04:14:52.978Z,89.15
2023-04-07T04:17:19.820Z,88.87
2023-04-07T04:19:48.138Z,88.77
2023-04-07T04:22:15.560Z,89.00
2023-04-07T04:24:42.542Z,89.33
2023-04-07T04:27:09.841Z,88.91
2023-04-07T04:29:36.744Z,88.65
2023-04-07T04:32:03.471Z,88.33
2023-04-07T04:34:31.733Z,86.13
2023-04-07T04:37:00.805Z,86.06
2023-04-07T04:39:27.571Z,86.90
2023-04-07T04:41:54.866Z,86.91
2023-04-07T04:44:23.502Z,88.13
2023-04-07T04:46:50.565Z,88.33
2023-04-07T04:49:17.339Z,87.98
2023-04-07T04:51:44.135Z,87.60
2023-04-07T04:54:12.406Z,87.39
2023-04-07T04:56:40.443Z,87.03
2023-04-07T04:59:07.230Z,87.45
2023-04-07T05:01:35.357Z,86.75
2023-04-07T05:04:02.350Z,86.81
2023-04-07T05:06:29.207Z,86.96
2023-04-07T05:08:56.077Z,86.56
2023-04-07T05:11:24.525Z,87.19
2023-04-07T05:13:51.784Z,87.65
2023-04-07T05:16:18.800Z,87.05
2023-04-07T05:18:45.870Z,86.90
2023-04-07T05:21:12.663Z,87.03
2023-04-07T05:23:39.589Z,86.88
2023-04-07T05:26:07.754Z,87.31
2023-04-07T05:28:36.443Z,87.20
2023-04-07T05:31:05.729Z,86.99
2023-04-07T05:33:34.810Z,87.17
2023-04-07T05:36:01.590Z,87.17
2023-04-07T05:38:29.651Z,87.28
2023-04-07T05:40:56.692Z,87.93
2023-04-07T05:43:23.726Z,88.77
2023-04-07T05:45:52.107Z,88.51
2023-04-07T05:48:19.211Z,88.23
2023-04-07T05:50:46.295Z,87.77
2023-04-07T05:53:13.064Z,87.55
2023-04-07T05:55:43.029Z,87.63
2023-04-07T05:58:09.742Z,87.77
2023-04-07T06:00:36.797Z,87.40
2023-04-07T06:03:05.765Z,88.93
2023-04-07T06:05:33.452Z,89.58
2023-04-07T06:08:00.374Z,90.13
2023-04-07T06:10:27.887Z,90.19
2023-04-07T06:12:55.106Z,90.56
2023-04-07T06:15:22.895Z,90.80
2023-04-07T06:17:49.655Z,91.22
2023-04-07T06:20:18.063Z,91.20
2023-04-07T06:22:45.868Z,91.79
2023-04-07T06:25:12.671Z,91.74
2023-04-07T06:27:39.863Z,92.30
2023-04-07T06:30:08.678Z,92.26
2023-04-07T06:32:35.727Z,92.91
2023-04-07T06:35:03.057Z,93.75
2023-04-07T06:37:31.423Z,94.33
2023-04-07T06:39:58.371Z,95.18
2023-04-07T06:42:25.593Z,95.01
2023-04-07T06:44:53.088Z,94.84
2023-04-07T06:47:19.880Z,95.58
2023-04-07T06:49:46.581Z,94.91
2023-04-07T06:52:13.596Z,94.03
2023-04-07T06:54:41.957Z,94.49
2023-04-07T06:57:09.440Z,93.55
2023-04-07T06:59:43.635Z,93.33
2023-04-07T07:02:10.730Z,91.79
2023-04-07T07:04:37.852Z,91.85
2023-04-07T07:07:04.741Z,90.70
2023-04-07T07:09:34.125Z,91.52
2023-04-07T07:12:03.991Z,91.32
2023-04-07T07:14:31.373Z,89.81
2023-04-07T07:16:58.527Z,87.02
2023-04-07T07:19:25.756Z,83.95
2023-04-07T07:21:53.427Z,79.57
2023-04-07T07:24:20.518Z,76.37
2023-04-07T07:26:47.843Z,73.72
2023-04-07T07:29:16.596Z,68.26
2023-04-07T07:31:46.701Z,64.67
2023-04-07T07:34:13.426Z,57.07
2023-04-07T07:36:40.505Z,56.35
2023-04-07T07:39:07.784Z,53.36
2023-04-07T07:41:34.834Z,50.22
2023-04-07T07:44:01.650Z,49.71
2023-04-07T07:46:31.802Z,47.95
2023-04-07T07:48:58.786Z,48.50
2023-04-07T07:51:25.922Z,48.54
2023-04-07T07:53:53.813Z,47.13
2023-04-07T07:56:20.857Z,43.64
2023-04-07T07:58:48.382Z,42.40
2023-04-07T08:01:15.534Z,42.92
2023-04-07T08:03:45.115Z,42.27
2023-04-07T08:06:13.397Z,43.65
2023-04-07T08:08:40.569Z,44.16
2023-04-07T08:11:07.423Z,45.90
2023-04-07T08:13:37.419Z,45.26
2023-04-07T08:16:04.862Z,46.22
2023-04-07T08:18:31.713Z,45.39
2023-04-07T08:21:00.007Z,46.24
2023-04-07T08:23:27.034Z,46.40
2023-04-07T08:25:54.032Z,48.05
2023-04-07T08:28:24.407Z,49.17
2023-04-07T08:30:51.148Z,48.59
2023-04-07T08:33:17.868Z,51.06
2023-04-07T08:35:45.042Z,50.85
2023-04-07T08:38:13.333Z,47.88
2023-04-07T08:40:40.562Z,47.17
2023-04-07T08:43:09.985Z,44.82
2023-04-07T08:45:40.532Z,46.44
2023-04-07T08:48:16.078Z,45.23
2023-04-07T08:50:45.619Z,45.21
2023-04-07T08:53:18.886Z,41.87
2023-04-07T08:55:45.982Z,43.80
2023-04-07T08:58:14.882Z,42.73
2023-04-07T09:00:44.004Z,41.96
2023-04-07T09:03:11.986Z,43.23
2023-04-07T09:05:39.308Z,44.29
2023-04-07T09:08:06.415Z,42.53
2023-04-07T09:10:36.558Z,39.09
2023-04-07T09:13:03.414Z,42.34
2023-04-07T09:15:31.426Z,41.01
2023-04-07T09:17:58.789Z,38.44
2023-04-07T09:20:25.867Z,38.81
2023-04-07T09:22:52.628Z,38.20
2023-04-07T09:25:21.235Z,34.90
2023-04-07T09:28:03.888Z,33.62
2023-04-07T09:30:32.526Z,35.84
2023-04-07T09:33:00.590Z,33.78
2023-04-07T09:35:27.647Z,34.76
2023-04-07T09:38:05.505Z,34.36
2023-04-07T09:40:33.107Z,35.88
2023-04-07T09:43:02.891Z,34.90
2023-04-07T09:45:35.435Z,36.05
2023-04-07T09:48:06.824Z,35.07
2023-04-07T09:50:34.747Z,35.07
2023-04-07T09:53:02.045Z,33.55
2023-04-07T09:55:29.102Z,34.97
2023-04-07T09:57:55.909Z,35.61
2023-04-07T10:00:24.847Z,36.53
2023-04-07T10:02:53.266Z,35.98
2023-04-07T10:05:21.379Z,34.61
2023-04-07T10:07:48.758Z,33.94
2023-04-07T10:10:16.422Z,33.57
2023-04-07T10:12:44.361Z,34.72
2023-04-07T10:15:13.210Z,34.14
2023-04-07T10:17:45.663Z,35.09
2023-04-07T10:20:13.689Z,35.35
2023-04-07T10:22:42.594Z,33.95
2023-04-07T10:25:12.320Z,34.76
2023-04-07T10:27:43.441Z,36.41
2023-04-07T10:30:15.954Z,35.60
2023-04-07T10:32:50.598Z,35.11
2023-04-07T10:35:18.972Z,34.13
2023-04-07T10:38:11.449Z,33.21
2023-04-07T10:40:39.031Z,33.40
2023-04-07T10:43:07.198Z,31.91
2023-04-07T10:45:58.365Z,32.91
2023-04-07T10:48:27.591Z,32.90
2023-04-07T10:51:14.990Z,34.02
2023-04-07T10:54:15.778Z,32.29
2023-04-07T10:57:08.317Z,31.79
2023-04-07T10:59:35.473Z,32.49
2023-04-07T11:02:35.477Z,32.25
2023-04-07T11:05:04.766Z,31.50
2023-04-07T11:07:55.331Z,32.48
2023-04-07T11:10:23.438Z,32.28
2023-04-07T11:13:06.294Z,32.41
2023-04-07T11:15:34.730Z,32.97
2023-04-07T11:18:23.451Z,32.40
2023-04-07T11:20:54.559Z,33.32
2023-04-07T11:23:22.854Z,33.15
2023-04-07T11:25:52.499Z,32.03
2023-04-07T11:28:20.430Z,30.68
2023-04-07T11:30:50.921Z,33.55
2023-04-07T11:33:20.739Z,32.83
2023-04-07T11:36:05.342Z,32.23
2023-04-07T11:38:37.617Z,31.99
2023-04-07T11:41:14.226Z,32.08
2023-04-07T11:43:42.554Z,31.22
2023-04-07T11:46:11.879Z,29.05
2023-04-07T11:48:41.096Z,31.23
2023-04-07T11:51:17.512Z,30.54
2023-04-07T11:53:45.837Z,29.36
2023-04-07T11:56:15.845Z,32.22
2023-04-07T11:58:49.811Z,29.37
2023-04-07T12:01:16.967Z,31.86
2023-04-07T12:03:57.983Z,30.73
2023-04-07T12:06:34.309Z,27.78
2023-04-07T12:09:03.207Z,27.84
2023-04-07T12:11:37.459Z,28.78
2023-04-07T12:14:08.451Z,27.85
2023-04-07T12:16:40.428Z,28.14
2023-04-07T12:19:09.823Z,27.92
2023-04-07T12:21:39.838Z,26.73
2023-04-07T12:24:07.345Z,28.17
2023-04-07T12:26:35.052Z,27.49
2023-04-07T12:29:02.462Z,28.27
2023-04-07T12:31:29.976Z,27.82
2023-04-07T12:33:57.687Z,25.93
2023-04-07T12:36:24.603Z,25.93
2023-04-07T12:38:54.982Z,25.12
2023-04-07T12:41:22.625Z,25.49
2023-04-07T12:43:51.099Z,26.17
2023-04-07T12:46:18.998Z,28.28
2023-04-07T12:48:47.914Z,27.81
2023-04-07T12:51:15.832Z,26.46
2023-04-07T12:53:43.617Z,27.47
2023-04-07T12:56:12.759Z,26.12
2023-04-07T12:58:40.835Z,26.44
2023-04-07T13:01:08.105Z,26.26
2023-04-07T13:03:36.559Z,26.06
2023-04-07T13:06:05.432Z,28.21
2023-04-07T13:08:32.240Z,28.47
2023-04-07T13:10:59.770Z,27.72
2023-04-07T13:13:28.928Z,26.74
2023-04-07T13:15:55.845Z,24.66
2023-04-07T13:18:23.530Z,26.58
2023-04-07T13:21:03.018Z,25.75
2023-04-07T13:23:43.371Z,28.19
2023-04-07T13:26:17.156Z,26.41
2023-04-07T13:28:46.028Z,25.68
2023-04-07T13:31:13.689Z,25.93
2023-04-07T13:33:41.104Z,27.51
2023-04-07T13:36:08.636Z,27.13
2023-04-07T13:38:36.393Z,26.49
2023-04-07T13:41:03.492Z,28.01
2023-04-07T13:43:31.401Z,27.65
2023-04-07T13:46:03.102Z,28.14
2023-04-07T13:48:31.692Z,28.02
2023-04-07T13:51:00.210Z,26.64
2023-04-07T13:53:27.877Z,26.36
2023-04-07T13:56:00.745Z,25.46
2023-04-07T13:58:31.630Z,26.06
2023-04-07T14:01:01.574Z,27.47
2023-04-07T14:03:29.241Z,25.14
2023-04-07T14:05:56.875Z,26.73
2023-04-07T14:08:24.789Z,26.48
2023-04-07T14:10:53.649Z,25.25
2023-04-07T14:13:21.109Z,26.52
2023-04-07T14:15:49.036Z,26.83
2023-04-07T14:18:18.437Z,26.17
2023-04-07T14:20:46.007Z,24.78
2023-04-07T14:23:16.648Z,25.47
2023-04-07T14:25:47.965Z,25.78
2023-04-07T14:28:15.441Z,26.45
2023-04-07T14:30:42.857Z,25.82
2023-04-07T14:33:11.052Z,24.43
2023-04-07T14:35:40.600Z,24.93
2023-04-07T14:38:09.141Z,24.53
2023-04-07T14:40:36.621Z,23.69
2023-04-07T14:43:07.391Z,24.44
2023-04-07T14:45:36.629Z,25.05
2023-04-07T14:48:04.630Z,24.91
2023-04-07T14:50:33.747Z,25.10
2023-04-07T14:53:02.055Z,24.76
2023-04-07T14:55:29.386Z,23.91
2023-04-07T14:57:58.612Z,24.35
2023-04-07T15:00:26.830Z,25.80
2023-04-07T15:02:56.131Z,25.16
2023-04-07T15:05:24.018Z,25.89
2023-04-07T15:07:53.916Z,25.04
2023-04-07T15:10:23.938Z,23.68
2023-04-07T15:12:51.667Z,23.79
2023-04-07T15:15:19.362Z,24.29
2023-04-07T15:17:46.164Z,26.92
2023-04-07T15:20:13.805Z,24.71
2023-04-07T15:22:41.932Z,23.95
2023-04-07T15:25:10.066Z,25.06
2023-04-07T15:27:39.452Z,24.51
2023-04-07T15:30:08.678Z,22.89
2023-04-07T15:32:36.079Z,23.34
2023-04-07T15:35:03.925Z,22.15
2023-04-07T15:37:35.196Z,23.07
2023-04-07T15:40:03.163Z,23.26
2023-04-07T15:42:30.826Z,23.37
2023-04-07T15:44:59.873Z,22.43
2023-04-07T15:47:29.121Z,21.79
2023-04-07T15:49:56.950Z,24.70
2023-04-07T15:52:28.905Z,23.98
2023-04-07T15:54:56.565Z,23.19
2023-04-07T15:57:24.027Z,22.99
2023-04-07T15:59:51.690Z,21.63
2023-04-07T16:02:20.213Z,22.66
2023-04-07T16:04:49.281Z,22.70
2023-04-07T16:07:17.168Z,22.77
2023-04-07T16:09:44.880Z,22.42
2023-04-07T16:12:12.527Z,21.79
2023-04-07T16:14:40.129Z,23.43
2023-04-07T16:17:08.074Z,22.10
2023-04-07T16:19:39.800Z,21.98
2023-04-07T16:22:07.576Z,23.12
2023-04-07T16:24:36.030Z,22.16
2023-04-07T16:27:04.378Z,23.32
2023-04-07T16:29:32.686Z,24.61
2023-04-07T16:32:03.040Z,23.38
2023-04-07T16:34:30.645Z,23.50
2023-04-07T16:36:59.679Z,23.30
2023-04-07T16:39:29.276Z,22.96
2023-04-07T16:41:57.427Z,21.70
2023-04-07T16:44:27.394Z,21.44
2023-04-07T16:46:55.910Z,23.37
2023-04-07T16:49:24.029Z,22.43
2023-04-07T16:51:51.438Z,22.73
2023-04-07T16:54:21.539Z,21.69
2023-04-07T16:56:50.551Z,22.06
2023-04-07T16:59:19.131Z,21.71
2023-04-07T17:01:47.390Z,20.72
2023-04-07T17:04:16.323Z,21.34
2023-04-07T17:06:43.881Z,22.09
2023-04-07T17:09:11.442Z,22.76
2023-04-07T17:11:41.895Z,21.29
2023-04-07T17:14:09.542Z,22.59
2023-04-07T17:16:37.489Z,22.65
2023-04-07T17:19:05.417Z,22.17
2023-04-07T17:21:32.284Z,23.84
2023-04-07T17:23:59.717Z,23.48
2023-04-07T17:26:27.166Z,24.98
2023-04-07T17:28:56.553Z,24.08
2023-04-07T17:31:24.438Z,23.28
2023-04-07T17:33:52.047Z,24.32
2023-04-07T17:36:20.359Z,25.00
2023-04-07T17:38:48.132Z,25.16
2023-04-07T17:41:15.376Z,25.69
2023-04-07T17:43:42.940Z,25.86
2023-04-07T17:46:12.346Z,25.45
2023-04-07T17:48:41.676Z,25.16
2023-04-07T17:51:09.826Z,26.26
2023-04-07T17:53:37.837Z,27.39
2023-04-07T17:56:05.982Z,28.61
2023-04-07T17:58:34.010Z,28.58
2023-04-07T18:01:01.771Z,28.95
2023-04-07T18:03:36.451Z,30.42
2023-04-07T18:06:04.254Z,29.48
2023-04-07T18:08:31.982Z,30.50
2023-04-07T18:10:59.617Z,29.98
2023-04-07T18:13:26.768Z,31.60
2023-04-07T18:15:54.600Z,30.64
2023-04-07T18:18:22.674Z,31.06
2023-04-07T18:20:52.321Z,30.82
2023-04-07T18:23:20.175Z,31.46
2023-04-07T18:25:48.295Z,31.21
2023-04-07T18:28:15.859Z,31.42
2023-04-07T18:30:44.452Z,31.17
2023-04-07T18:33:14.450Z,30.98
2023-04-07T18:35:43.778Z,30.86
2023-04-07T18:38:12.112Z,31.08
2023-04-07T18:40:41.445Z,31.51
2023-04-07T18:43:08.945Z,31.45
2023-04-07T18:45:36.591Z,32.11
2023-04-07T18:48:04.889Z,31.96
2023-04-07T18:50:33.040Z,31.88
2023-04-07T18:53:00.795Z,32.57
2023-04-07T18:55:31.249Z,32.61
2023-04-07T18:57:58.445Z,33.31
2023-04-07T19:00:25.743Z,33.10
2023-04-07T19:02:56.870Z,33.48
2023-04-07T19:05:26.180Z,33.28
2023-04-07T19:07:53.478Z,33.57
2023-04-07T19:10:22.263Z,33.49
2023-04-07T19:12:53.172Z,33.70
2023-04-07T19:15:20.460Z,33.78
2023-04-07T19:17:48.191Z,33.84
2023-04-07T19:20:15.091Z,33.91
2023-04-07T19:22:43.402Z,33.82
2023-04-07T19:25:11.100Z,33.75
2023-04-07T19:27:38.737Z,33.67
2023-04-07T19:30:09.048Z,33.63
2023-04-07T19:32:37.047Z,33.49
2023-04-07T19:35:05.009Z,33.57
2023-04-07T19:37:32.826Z,32.68
2023-04-07T19:40:03.242Z,32.51
2023-04-07T19:42:30.451Z,32.78
2023-04-07T19:44:58.531Z,33.29
2023-04-07T19:47:29.336Z,33.27
2023-04-07T19:49:56.176Z,33.33
2023-04-07T19:52:23.088Z,33.85
2023-04-07T19:54:52.102Z,33.85
2023-04-07T19:57:19.739Z,34.32
2023-04-07T19:59:46.918Z,34.96
2023-04-07T20:02:14.263Z,35.27
2023-04-07T20:04:44.025Z,35.78
2023-04-07T20:07:11.933Z,36.08
2023-04-07T20:09:39.707Z,36.20
2023-04-07T20:12:07.236Z,36.82
2023-04-07T20:14:34.854Z,37.07
2023-04-07T20:17:02.647Z,37.38
2023-04-07T20:19:30.041Z,37.26
2023-04-07T20:21:59.208Z,37.38
2023-04-07T20:24:26.674Z,38.01
2023-04-07T20:26:53.926Z,38.22
2023-04-07T20:29:22.331Z,38.30
2023-04-07T20:31:50.086Z,38.61
2023-04-07T20:34:17.181Z,38.77
2023-04-07T20:36:44.992Z,39.47
2023-04-07T20:39:13.798Z,39.62
2023-04-07T20:41:41.206Z,39.81
2023-04-07T20:44:08.861Z,40.22
2023-04-07T20:46:35.740Z,40.49
2023-04-07T20:49:03.666Z,41.14
2023-04-07T20:51:31.696Z,41.46
2023-04-07T20:53:59.607Z,42.17
2023-04-07T20:56:28.023Z,42.91
2023-04-07T20:58:55.745Z,43.40
2023-04-07T21:01:23.212Z,44.09
2023-04-07T21:03:50.057Z,44.24
2023-04-07T21:06:18.591Z,44.55
2023-04-07T21:08:45.440Z,45.02
2023-04-07T21:11:13.284Z,45.36
2023-04-07T21:13:43.154Z,45.86
2023-04-07T21:16:12.548Z,46.54
2023-04-07T21:18:39.908Z,47.00
2023-04-07T21:21:07.764Z,47.03
2023-04-07T21:23:35.211Z,48.13
2023-04-07T21:26:02.527Z,48.90
2023-04-07T21:28:30.569Z,49.29
2023-04-07T21:30:59.907Z,49.68
2023-04-07T21:33:27.260Z,49.82
2023-04-07T21:35:55.083Z,49.89
2023-04-07T21:38:22.989Z,50.32
2023-04-07T21:40:50.450Z,50.68
2023-04-07T21:43:18.133Z,50.70
2023-04-07T21:45:45.899Z,50.40
2023-04-07T21:48:14.452Z,50.26
2023-04-07T21:50:42.568Z,50.40
2023-04-07T21:53:09.835Z,50.65
2023-04-07T21:55:37.360Z,50.34
2023-04-07T21:58:04.274Z,49.89
2023-04-07T22:00:31.746Z,49.46
2023-04-07T22:02:58.712Z,48.51
2023-04-07T22:05:28.043Z,47.63
2023-04-07T22:07:55.676Z,47.28
2023-04-07T22:10:24.642Z,46.96
2023-04-07T22:12:52.402Z,46.47
2023-04-07T22:15:20.218Z,46.09
2023-04-07T22:17:47.677Z,45.74
2023-04-07T22:20:15.619Z,45.91
2023-04-07T22:22:44.559Z,45.75
2023-04-07T22:25:12.716Z,45.89
2023-04-07T22:27:40.109Z,45.78
2023-04-07T22:30:08.938Z,46.07
2023-04-07T22:32:37.201Z,46.53
2023-04-07T22:35:05.265Z,46.71
2023-04-07T22:37:32.926Z,47.29
2023-04-07T22:40:04.220Z,47.37
2023-04-07T22:42:31.630Z,47.44
2023-04-07T22:44:59.459Z,47.49
2023-04-07T22:47:27.691Z,47.66
2023-04-07T22:49:54.698Z,47.43
2023-04-07T22:52:21.867Z,47.61
2023-04-07T22:54:49.960Z,47.87
2023-04-07T22:57:19.308Z,48.33
2023-04-07T22:59:46.888Z,48.36
2023-04-07T23:02:15.358Z,48.67
2023-04-07T23:04:43.401Z,48.60
2023-04-07T23:07:10.672Z,48.47
2023-04-07T23:09:38.293Z,48.76
2023-04-07T23:12:05.995Z,48.60
2023-04-07T23:14:34.255Z,48.88
2023-04-07T23:17:03.205Z,49.19
2023-04-07T23:19:30.857Z,49.59
2023-04-07T23:21:58.681Z,49.74
2023-04-07T23:24:26.573Z,50.41
2023-04-07T23:26:53.805Z,51.30
2023-04-07T23:29:21.354Z,52.64
2023-04-07T23:31:51.578Z,52.86
2023-04-07T23:34:18.873Z,52.82
2023-04-07T23:36:46.570Z,53.02
2023-04-07T23:39:13.517Z,53.21
2023-04-07T23:41:41.329Z,53.43
2023-04-07T23:44:08.952Z,54.26
2023-04-07T23:46:36.108Z,55.03
2023-04-07T23:49:05.079Z,55.91
2023-04-07T23:51:32.413Z,56.73
2023-04-07T23:54:00.245Z,56.79
2023-04-07T23:56:27.593Z,56.42
2023-04-07T23:58:55.011Z,56.81
